Time;durP1;ratioP1;P1;durP2;ratioP2;P2;SDS_P1;SDS_P2;PMS_P1;PMS_P2;Temp;Humidity;BMP_temperature;BMP_pressure;BME280_temperature;BME280_humidity;BME280_pressure;Samples;Min_cycle;Max_cycle;Signal;HPM_P1;HPM_P2
2022/03/31 00:00:40;;;;;;;23.50;13.52;;;9.00;99.90;;;;;;5091704;28;20027;-61
2022/03/31 00:03:10;;;;;;;23.50;11.90;;;9.00;99.90;;;;;;5093274;28;20489;-61
2022/03/31 00:05:36;;;;;;;28.30;14.13;;;9.00;99.90;;;;;;5091366;28;20032;-61
2022/03/31 00:08:07;;;;;;;25.88;13.88;;;8.90;99.90;;;;;;5091667;28;20024;-60
2022/03/31 00:10:35;;;;;;;21.55;13.27;;;8.90;99.90;;;;;;5091749;28;20042;-61
2022/03/31 00:13:03;;;;;;;32.03;13.95;;;8.80;99.90;;;;;;5091642;28;20847;-61
2022/03/31 00:15:30;;;;;;;29.02;13.68;;;8.80;99.90;;;;;;5091652;28;20369;-61
2022/03/31 00:17:57;;;;;;;23.60;13.23;;;8.80;99.90;;;;;;5092540;28;20027;-61
2022/03/31 00:20:22;;;;;;;22.63;13.35;;;8.70;99.90;;;;;;5084429;28;20016;-62
2022/03/31 00:22:48;;;;;;;28.65;15.32;;;8.70;99.90;;;;;;5091862;28;20051;-61
2022/03/31 00:25:14;;;;;;;19.00;12.65;;;8.70;99.90;;;;;;5091800;28;20413;-62
2022/03/31 00:27:41;;;;;;;21.55;12.90;;;8.70;99.90;;;;;;5089467;28;20440;-61
2022/03/31 00:30:11;;;;;;;26.05;15.15;;;8.70;99.90;;;;;;5088899;28;20432;-64
2022/03/31 00:32:38;;;;;;;21.65;12.90;;;8.70;99.90;;;;;;5091194;28;20031;-62
2022/03/31 00:35:04;;;;;;;26.42;14.23;;;8.70;99.90;;;;;;5091081;28;20028;-62
2022/03/31 00:37:30;;;;;;;24.08;14.13;;;8.70;99.90;;;;;;5091942;28;20020;-62
2022/03/31 00:39:56;;;;;;;29.30;15.02;;;8.70;99.90;;;;;;5090864;28;20486;-62
2022/03/31 00:42:22;;;;;;;26.35;14.45;;;8.70;99.90;;;;;;5090376;28;20028;-62
2022/03/31 00:44:49;;;;;;;33.40;15.60;;;8.70;99.90;;;;;;5091822;28;20458;-61
2022/03/31 00:47:15;;;;;;;28.20;15.13;;;8.70;99.90;;;;;;5085777;28;20070;-62
2022/03/31 00:49:41;;;;;;;26.35;15.02;;;8.70;99.90;;;;;;5088797;28;20046;-61
2022/03/31 00:52:08;;;;;;;36.55;16.50;;;8.70;99.90;;;;;;5089341;28;20045;-62
2022/03/31 00:54:34;;;;;;;40.67;15.80;;;8.60;99.90;;;;;;5090815;28;20085;-61
2022/03/31 00:57:02;;;;;;;29.17;15.98;;;8.60;99.90;;;;;;5073546;28;20028;-62
2022/03/31 00:59:29;;;;;;;26.48;15.55;;;8.60;99.90;;;;;;5089286;28;20020;-62
2022/03/31 01:01:56;;;;;;;27.13;16.40;;;8.60;99.90;;;;;;5091325;28;20129;-62
2022/03/31 01:04:22;;;;;;;31.90;16.15;;;8.50;99.90;;;;;;5091253;28;20036;-62
2022/03/31 01:06:49;;;;;;;31.17;16.85;;;8.50;99.90;;;;;;5089868;28;20145;-62
2022/03/31 01:09:15;;;;;;;31.88;16.52;;;8.50;99.90;;;;;;5091186;28;20026;-61
2022/03/31 01:11:41;;;;;;;34.97;16.38;;;8.50;99.90;;;;;;5089011;28;20386;-61
2022/03/31 01:14:08;;;;;;;27.80;17.35;;;8.50;99.90;;;;;;5089200;28;20473;-62
2022/03/31 01:16:34;;;;;;;29.83;17.75;;;8.50;99.90;;;;;;5091378;28;20034;-61
2022/03/31 01:19:09;;;;;;;31.13;18.02;;;8.60;99.90;;;;;;5089705;28;20024;-62
2022/03/31 01:21:42;;;;;;;29.40;16.60;;;8.60;99.90;;;;;;5091575;28;20482;-61
2022/03/31 01:24:09;;;;;;;32.60;18.30;;;8.50;99.90;;;;;;5082058;28;20396;-62
2022/03/31 01:26:36;;;;;;;38.13;17.25;;;8.50;99.90;;;;;;5090371;28;20389;-62
2022/03/31 01:29:02;;;;;;;34.22;19.40;;;8.50;99.90;;;;;;5089145;28;20374;-62
2022/03/31 01:31:27;;;;;;;40.95;20.50;;;8.50;99.90;;;;;;5090817;28;20434;-60
2022/03/31 01:33:54;;;;;;;35.97;20.75;;;8.40;99.90;;;;;;5089348;28;20169;-62
2022/03/31 01:36:20;;;;;;;39.35;20.60;;;8.50;99.90;;;;;;5090064;28;20397;-62
2022/03/31 01:38:46;;;;;;;35.38;20.17;;;8.50;99.90;;;;;;5090018;28;20020;-62
2022/03/31 01:41:12;;;;;;;37.63;20.67;;;8.40;99.90;;;;;;5090123;28;20016;-62
2022/03/31 01:43:37;;;;;;;35.03;21.38;;;8.30;99.90;;;;;;5088677;28;20031;-62
2022/03/31 01:46:04;;;;;;;39.70;22.20;;;8.40;99.90;;;;;;5090432;28;20085;-62
2022/03/31 01:48:30;;;;;;;42.30;22.00;;;8.50;99.90;;;;;;5087853;28;20061;-61
2022/03/31 01:50:57;;;;;;;38.70;20.65;;;8.50;99.90;;;;;;5090370;28;20153;-62
2022/03/31 01:53:22;;;;;;;48.45;22.98;;;8.50;99.90;;;;;;5085423;28;20024;-62
2022/03/31 01:55:48;;;;;;;43.03;22.27;;;8.40;99.90;;;;;;5089202;28;20628;-61
2022/03/31 01:58:13;;;;;;;47.22;22.75;;;8.30;99.90;;;;;;5086003;28;20085;-62
2022/03/31 02:00:39;;;;;;;39.10;21.70;;;8.40;99.90;;;;;;5089621;28;20016;-62
2022/03/31 02:03:04;;;;;;;41.30;22.17;;;8.30;99.90;;;;;;5089480;28;20035;-62
2022/03/31 02:05:30;;;;;;;51.75;23.48;;;8.30;99.90;;;;;;5089475;28;20036;-62
2022/03/31 02:07:56;;;;;;;43.20;22.15;;;8.30;99.90;;;;;;5090036;28;20410;-62
2022/03/31 02:10:25;;;;;;;46.30;23.00;;;8.30;99.90;;;;;;5088973;28;20051;-62
2022/03/31 02:12:50;;;;;;;45.22;22.40;;;8.30;99.90;;;;;;5089853;28;20432;-62
2022/03/31 02:15:16;;;;;;;45.85;24.83;;;8.30;99.90;;;;;;5089787;28;20031;-62
2022/03/31 02:17:42;;;;;;;45.55;24.45;;;8.20;99.90;;;;;;5088790;28;20423;-61
2022/03/31 02:20:08;;;;;;;49.50;24.55;;;8.20;99.90;;;;;;5087219;28;20082;-62
2022/03/31 02:22:34;;;;;;;44.75;24.52;;;8.10;99.90;;;;;;5088950;28;20143;-62
2022/03/31 02:25:00;;;;;;;47.30;23.35;;;8.10;99.90;;;;;;5087208;28;20131;-62
2022/03/31 02:27:26;;;;;;;49.35;26.10;;;8.10;99.90;;;;;;5087963;28;20081;-62
2022/03/31 02:29:51;;;;;;;47.60;24.17;;;8.20;99.90;;;;;;5089802;28;20369;-62
2022/03/31 02:32:17;;;;;;;44.50;23.15;;;8.20;99.90;;;;;;5071269;28;20024;-62
2022/03/31 02:34:42;;;;;;;56.85;25.42;;;8.20;99.90;;;;;;5088213;28;20036;-61
2022/03/31 02:37:08;;;;;;;46.75;24.70;;;8.30;99.90;;;;;;5089075;28;20095;-62
2022/03/31 02:39:33;;;;;;;47.75;23.70;;;8.20;99.90;;;;;;5089335;28;20067;-62
2022/03/31 02:42:01;;;;;;;50.83;25.30;;;8.10;99.90;;;;;;5088388;28;20517;-62
2022/03/31 02:44:26;;;;;;;45.85;24.42;;;7.90;99.90;;;;;;5070591;28;20109;-62
2022/03/31 02:46:52;;;;;;;53.47;26.98;;;7.90;99.90;;;;;;5088781;28;20137;-62
2022/03/31 02:49:18;;;;;;;51.00;26.08;;;7.80;99.90;;;;;;5087968;28;20043;-62
2022/03/31 02:51:44;;;;;;;57.30;27.73;;;7.80;99.90;;;;;;5087836;28;20043;-62
2022/03/31 02:56:54;;;;;;;51.97;26.10;;;7.80;99.90;;;;;;5086114;28;20087;-62
2022/03/31 02:59:20;;;;;;;54.88;27.63;;;7.70;99.90;;;;;;5088308;28;20577;-62
2022/03/31 03:01:46;;;;;;;55.35;28.48;;;7.80;99.90;;;;;;5088388;28;20113;-62
2022/03/31 03:04:12;;;;;;;51.20;26.25;;;7.80;99.90;;;;;;5087839;28;20481;-62
2022/03/31 03:06:38;;;;;;;63.00;29.13;;;7.80;99.90;;;;;;5088517;28;20517;-62
2022/03/31 03:09:04;;;;;;;57.47;28.38;;;7.80;99.90;;;;;;5088401;28;20039;-62
2022/03/31 03:11:30;;;;;;;51.00;26.30;;;7.80;99.90;;;;;;5089994;28;20398;-62
2022/03/31 03:13:55;;;;;;;58.22;28.05;;;7.80;99.90;;;;;;5088130;28;20035;-62
2022/03/31 03:16:21;;;;;;;55.35;29.08;;;7.80;99.90;;;;;;5087597;28;20111;-62
2022/03/31 03:18:47;;;;;;;57.72;28.45;;;7.80;99.90;;;;;;5088444;28;20035;-62
2022/03/31 03:21:12;;;;;;;54.42;27.05;;;7.80;99.90;;;;;;5088699;28;20032;-62
2022/03/31 03:23:39;;;;;;;59.55;27.98;;;7.80;99.90;;;;;;5087756;28;20043;-62
2022/03/31 03:26:06;;;;;;;61.63;28.48;;;7.70;99.90;;;;;;5089117;28;20429;-62
2022/03/31 03:28:36;;;;;;;59.13;29.95;;;7.60;99.90;;;;;;5071412;28;20031;-62
2022/03/31 03:31:03;;;;;;;62.42;28.10;;;7.70;99.90;;;;;;5084436;28;20028;-64
2022/03/31 03:33:28;;;;;;;54.40;28.02;;;7.60;99.90;;;;;;5086913;28;20107;-61
2022/03/31 03:35:54;;;;;;;55.75;28.30;;;7.60;99.90;;;;;;5087944;28;20442;-62
2022/03/31 03:38:20;;;;;;;58.03;28.15;;;7.50;99.90;;;;;;5086864;28;20020;-63
2022/03/31 03:40:46;;;;;;;58.00;26.73;;;7.50;99.90;;;;;;5089630;28;20489;-62
2022/03/31 03:43:12;;;;;;;59.47;28.52;;;7.50;99.90;;;;;;5086632;28;20024;-62
2022/03/31 03:45:38;;;;;;;62.40;28.58;;;7.50;99.90;;;;;;5088578;28;20512;-62
2022/03/31 03:48:05;;;;;;;59.08;27.88;;;7.50;99.90;;;;;;5088958;28;20036;-62
2022/03/31 03:50:30;;;;;;;64.30;28.98;;;7.50;99.90;;;;;;5089203;28;20024;-62
2022/03/31 03:52:56;;;;;;;56.25;28.30;;;7.50;99.90;;;;;;5070080;28;20039;-62
2022/03/31 03:55:23;;;;;;;59.83;29.17;;;7.50;99.90;;;;;;5070159;28;20024;-61
2022/03/31 03:57:48;;;;;;;64.90;27.85;;;7.50;99.90;;;;;;5088573;28;20123;-61
2022/03/31 04:00:14;;;;;;;66.07;28.85;;;7.40;99.90;;;;;;5087947;28;20111;-61
2022/03/31 04:02:41;;;;;;;60.85;28.35;;;7.50;99.90;;;;;;5088223;28;20029;-62
2022/03/31 04:05:07;;;;;;;62.50;28.33;;;7.40;99.90;;;;;;5087770;28;20012;-62
2022/03/31 04:07:32;;;;;;;59.85;27.60;;;7.40;99.90;;;;;;5088416;28;20039;-62
2022/03/31 04:09:58;;;;;;;61.53;28.42;;;7.30;99.90;;;;;;5089132;28;20111;-61
2022/03/31 04:12:24;;;;;;;58.83;28.50;;;7.40;99.90;;;;;;5088592;28;20111;-62
2022/03/31 04:14:49;;;;;;;64.00;29.50;;;7.30;99.90;;;;;;5088217;28;20056;-62
2022/03/31 04:17:16;;;;;;;63.03;28.30;;;7.30;99.90;;;;;;5088474;28;20028;-61
2022/03/31 04:19:42;;;;;;;57.33;25.83;;;7.30;99.90;;;;;;5088832;28;20027;-61
2022/03/31 04:22:08;;;;;;;55.35;26.60;;;7.30;99.90;;;;;;5087610;28;20027;-61
2022/03/31 04:24:33;;;;;;;60.45;28.77;;;7.30;99.90;;;;;;5088096;28;20058;-61
2022/03/31 04:26:59;;;;;;;62.78;28.17;;;7.30;99.90;;;;;;5088139;28;20035;-61
2022/03/31 04:29:26;;;;;;;60.35;27.48;;;7.30;99.90;;;;;;5088270;28;20169;-62
2022/03/31 04:31:52;;;;;;;61.25;28.38;;;7.20;99.90;;;;;;5090507;28;20038;-61
2022/03/31 04:34:19;;;;;;;58.25;28.10;;;7.20;99.90;;;;;;5090975;28;20354;-61
2022/03/31 04:36:45;;;;;;;63.05;28.60;;;7.10;99.90;;;;;;5091520;28;20107;-62
2022/03/31 04:39:12;;;;;;;71.70;31.25;;;7.20;99.90;;;;;;5092392;28;20099;-62
2022/03/31 04:41:39;;;;;;;67.22;30.42;;;7.10;99.90;;;;;;5091683;28;20054;-61
2022/03/31 04:44:05;;;;;;;63.58;31.13;;;7.00;99.90;;;;;;5091261;28;20028;-62
2022/03/31 04:46:33;;;;;;;63.55;29.80;;;7.00;99.90;;;;;;5090713;28;20106;-62
2022/03/31 04:48:58;;;;;;;70.05;30.80;;;7.00;99.90;;;;;;5088708;28;20054;-61
2022/03/31 04:51:24;;;;;;;68.97;31.08;;;7.00;99.90;;;;;;5092412;28;20027;-62
2022/03/31 04:53:50;;;;;;;69.88;31.05;;;7.00;99.90;;;;;;5088535;28;20402;-62
2022/03/31 04:56:16;;;;;;;75.70;32.42;;;7.00;99.90;;;;;;5069219;28;20120;-62
2022/03/31 04:58:41;;;;;;;66.13;28.88;;;7.00;99.90;;;;;;5107930;22;20075;-58
2022/03/31 05:01:07;;;;;;;67.82;29.55;;;7.00;99.90;;;;;;5107984;28;20067;-60
2022/03/31 05:03:32;;;;;;;65.43;29.40;;;7.00;99.90;;;;;;5109019;28;20134;-58
2022/03/31 05:05:58;;;;;;;62.17;29.63;;;6.90;99.90;;;;;;5108975;28;20443;-58
2022/03/31 05:08:23;;;;;;;67.15;29.77;;;7.00;99.90;;;;;;5106518;28;20053;-59
2022/03/31 05:10:49;;;;;;;60.33;29.65;;;7.00;99.90;;;;;;5110656;28;20403;-59
2022/03/31 05:13:15;;;;;;;67.43;30.73;;;7.00;99.90;;;;;;5104261;28;20028;-58
2022/03/31 05:15:40;;;;;;;70.65;32.38;;;7.00;99.90;;;;;;5105346;28;20132;-56
2022/03/31 05:18:06;;;;;;;70.50;30.77;;;6.90;99.90;;;;;;5103995;28;20180;-60
2022/03/31 05:20:31;;;;;;;70.75;31.88;;;6.90;99.90;;;;;;5105346;28;20031;-62
2022/03/31 05:22:57;;;;;;;69.25;29.63;;;6.90;99.90;;;;;;5108145;28;20023;-63
2022/03/31 05:25:23;;;;;;;65.75;31.80;;;6.90;99.90;;;;;;5108928;28;20504;-63
2022/03/31 05:27:49;;;;;;;66.53;29.38;;;6.90;99.90;;;;;;5108378;28;20061;-63
2022/03/31 05:30:18;;;;;;;67.03;30.23;;;6.90;99.90;;;;;;5101751;28;20089;-63
2022/03/31 05:32:44;;;;;;;72.30;30.35;;;6.90;99.90;;;;;;5102249;28;20024;-63
2022/03/31 05:35:11;;;;;;;71.43;31.50;;;6.90;99.90;;;;;;5101647;28;20026;-63
2022/03/31 05:37:37;;;;;;;79.47;34.25;;;6.80;99.90;;;;;;5102233;28;20015;-63
2022/03/31 05:40:06;;;;;;;77.35;31.63;;;6.80;99.90;;;;;;5101889;28;20024;-63
2022/03/31 05:42:32;;;;;;;72.72;30.83;;;6.80;99.90;;;;;;5103232;28;20020;-62
2022/03/31 05:44:59;;;;;;;75.38;32.83;;;6.90;99.90;;;;;;5102947;28;20036;-61
2022/03/31 05:47:25;;;;;;;74.18;32.85;;;6.80;99.90;;;;;;5108205;28;20073;-62
2022/03/31 05:49:51;;;;;;;71.65;32.08;;;6.80;99.90;;;;;;5106754;28;20031;-62
2022/03/31 05:52:17;;;;;;;69.15;31.52;;;6.90;99.90;;;;;;5108063;28;20023;-62
2022/03/31 05:54:43;;;;;;;66.43;29.88;;;6.80;99.90;;;;;;5104618;28;20039;-62
2022/03/31 05:57:09;;;;;;;64.57;29.63;;;6.80;99.90;;;;;;5102548;28;20012;-61
2022/03/31 05:59:35;;;;;;;65.30;29.13;;;6.80;99.90;;;;;;5105307;28;20822;-61
2022/03/31 06:02:01;;;;;;;55.15;26.35;;;6.80;99.90;;;;;;5110530;28;20036;-62
2022/03/31 06:04:27;;;;;;;60.20;26.25;;;6.80;99.90;;;;;;5110192;28;20054;-62
2022/03/31 06:06:53;;;;;;;55.30;25.23;;;6.70;99.90;;;;;;5107812;28;20051;-62
2022/03/31 06:09:18;;;;;;;57.17;26.25;;;6.70;99.90;;;;;;5103491;28;20032;-62
2022/03/31 06:11:44;;;;;;;56.53;27.65;;;6.60;99.90;;;;;;5107962;28;20027;-61
2022/03/31 06:14:11;;;;;;;63.85;27.95;;;6.60;99.90;;;;;;5107868;28;20050;-63
2022/03/31 06:16:37;;;;;;;62.42;25.98;;;6.60;99.90;;;;;;5105385;28;20482;-61
2022/03/31 06:19:03;;;;;;;58.72;26.85;;;6.60;99.90;;;;;;5109315;28;20046;-62
2022/03/31 06:21:29;;;;;;;56.20;26.95;;;6.70;99.90;;;;;;5109294;28;20024;-63
2022/03/31 06:23:54;;;;;;;60.33;27.17;;;6.60;99.90;;;;;;5109110;28;20096;-63
2022/03/31 06:26:20;;;;;;;61.40;26.92;;;6.70;99.90;;;;;;5102159;28;20051;-62
2022/03/31 06:28:46;;;;;;;61.42;27.52;;;6.70;99.90;;;;;;5104716;28;20036;-62
2022/03/31 06:31:12;;;;;;;73.70;29.60;;;6.70;99.90;;;;;;5106524;28;20502;-63
2022/03/31 06:33:38;;;;;;;64.45;30.52;;;6.70;99.90;;;;;;5107784;28;20422;-63
2022/03/31 06:36:04;;;;;;;63.72;29.95;;;6.70;99.90;;;;;;5104845;28;20028;-63
2022/03/31 06:38:30;;;;;;;62.47;28.67;;;6.60;99.90;;;;;;5108445;28;20058;-62
2022/03/31 06:41:10;;;;;;;68.22;30.00;;;6.60;99.90;;;;;;5106219;28;20051;-63
2022/03/31 06:43:37;;;;;;;69.18;30.40;;;6.70;99.90;;;;;;5104424;28;20370;-63
2022/03/31 06:46:04;;;;;;;67.57;29.90;;;6.70;99.90;;;;;;5106989;28;20610;-63
2022/03/31 06:48:30;;;;;;;66.40;28.45;;;6.60;99.90;;;;;;5106604;28;20031;-63
2022/03/31 06:50:57;;;;;;;68.63;29.52;;;6.60;99.90;;;;;;5086345;28;20374;-63
2022/03/31 06:53:23;;;;;;;61.60;27.88;;;6.60;99.90;;;;;;5102501;28;20034;-63
2022/03/31 06:55:49;;;;;;;63.25;27.92;;;6.60;99.90;;;;;;5108832;28;20051;-63
2022/03/31 06:58:15;;;;;;;58.95;27.52;;;6.50;99.90;;;;;;5101513;28;20054;-62
2022/03/31 07:00:41;;;;;;;67.30;29.23;;;6.50;99.90;;;;;;5109484;28;20027;-61
2022/03/31 07:03:06;;;;;;;66.43;28.70;;;6.50;99.90;;;;;;5105530;28;20047;-62
2022/03/31 07:05:36;;;;;;;60.15;29.42;;;6.50;99.90;;;;;;5110333;28;20393;-61
2022/03/31 07:08:02;;;;;;;62.83;26.15;;;6.40;99.90;;;;;;5109830;28;20382;-62
2022/03/31 07:10:28;;;;;;;61.45;28.02;;;6.30;99.90;;;;;;5108814;28;20024;-62
2022/03/31 07:12:54;;;;;;;70.10;28.48;;;6.40;99.90;;;;;;5106727;28;20043;-62
2022/03/31 07:15:19;;;;;;;64.35;28.95;;;6.40;99.90;;;;;;5109770;28;20026;-63
2022/03/31 07:17:45;;;;;;;69.20;30.33;;;6.50;99.90;;;;;;5102801;28;20028;-62
2022/03/31 07:20:11;;;;;;;71.35;29.67;;;6.50;99.90;;;;;;5100716;28;20023;-63
2022/03/31 07:22:43;;;;;;;69.00;30.60;;;6.60;99.90;;;;;;5109865;28;20020;-61
2022/03/31 07:25:09;;;;;;;61.28;28.58;;;6.60;99.90;;;;;;5109820;28;20085;-63
2022/03/31 07:27:35;;;;;;;61.65;28.67;;;6.60;99.90;;;;;;5108934;28;20031;-63
2022/03/31 07:30:00;;;;;;;62.30;28.02;;;6.60;99.90;;;;;;5107435;28;20032;-62
2022/03/31 07:32:26;;;;;;;67.00;27.25;;;6.50;99.90;;;;;;5109019;28;20084;-63
2022/03/31 07:34:52;;;;;;;63.67;29.08;;;6.60;99.90;;;;;;5109623;28;20034;-63
2022/03/31 07:37:17;;;;;;;60.10;27.63;;;6.60;99.90;;;;;;5110007;28;20016;-62
2022/03/31 07:39:45;;;;;;;57.05;26.40;;;6.50;99.90;;;;;;5090885;28;20034;-60
2022/03/31 07:42:12;;;;;;;57.17;25.83;;;6.50;99.90;;;;;;5109792;28;20102;-62
2022/03/31 07:44:37;;;;;;;55.97;25.85;;;6.40;99.90;;;;;;5107615;28;20435;-62
2022/03/31 07:47:03;;;;;;;61.28;26.23;;;6.40;99.90;;;;;;5110003;28;20031;-62
2022/03/31 07:49:29;;;;;;;64.35;28.73;;;6.40;99.90;;;;;;5109194;28;20031;-62
2022/03/31 07:51:54;;;;;;;62.88;26.83;;;6.30;99.90;;;;;;5109849;28;20076;-62
2022/03/31 07:54:20;;;;;;;57.05;26.40;;;6.30;99.90;;;;;;5109306;28;20508;-62
2022/03/31 07:56:46;;;;;;;59.65;23.92;;;6.30;99.90;;;;;;5109863;28;20898;-62
2022/03/31 07:59:11;;;;;;;58.35;25.65;;;6.30;99.90;;;;;;5107024;28;20028;-63
2022/03/31 08:01:37;;;;;;;64.90;27.85;;;6.40;99.90;;;;;;5107061;28;20039;-62
2022/03/31 08:04:05;;;;;;;58.45;26.17;;;6.50;99.90;;;;;;5105643;28;20027;-61
2022/03/31 08:06:30;;;;;;;63.03;26.50;;;6.50;99.90;;;;;;5111542;28;20119;-61
2022/03/31 08:08:56;;;;;;;63.67;26.52;;;6.50;99.90;;;;;;5095130;28;20458;-62
2022/03/31 08:11:22;;;;;;;57.17;27.48;;;6.50;99.90;;;;;;5112928;28;20077;-62
2022/03/31 08:13:48;;;;;;;51.80;25.17;;;6.50;99.90;;;;;;5112645;28;20132;-63
2022/03/31 08:16:14;;;;;;;56.83;24.75;;;6.60;99.90;;;;;;5095558;28;20137;-62
2022/03/31 08:18:39;;;;;;;56.15;26.15;;;6.60;99.90;;;;;;5105908;28;20028;-63
2022/03/31 08:21:05;;;;;;;56.95;27.65;;;6.60;99.90;;;;;;5113539;28;20028;-63
2022/03/31 08:23:32;;;;;;;60.88;26.25;;;6.60;99.90;;;;;;5113431;28;20458;-62
2022/03/31 08:25:57;;;;;;;55.03;25.08;;;6.60;99.90;;;;;;5113367;28;20053;-60
2022/03/31 08:28:25;;;;;;;55.55;27.27;;;6.60;99.90;;;;;;5112539;28;20070;-62
2022/03/31 08:30:51;;;;;;;61.65;24.20;;;6.60;99.90;;;;;;5112719;28;20023;-62
2022/03/31 08:33:17;;;;;;;55.05;24.70;;;6.60;99.90;;;;;;5111572;28;20474;-62
2022/03/31 08:35:42;;;;;;;59.63;24.92;;;6.60;99.90;;;;;;5113006;28;20031;-61
2022/03/31 08:38:08;;;;;;;58.33;25.48;;;6.70;99.90;;;;;;5113073;28;20112;-62
2022/03/31 08:40:36;;;;;;;62.92;28.08;;;6.80;99.90;;;;;;5111530;28;20540;-62
2022/03/31 08:43:01;;;;;;;56.28;27.27;;;6.70;99.90;;;;;;5112787;28;20362;-62
2022/03/31 08:45:33;;;;;;;59.65;27.75;;;6.70;99.90;;;;;;5112766;28;20031;-62
2022/03/31 08:48:00;;;;;;;53.20;24.95;;;6.70;99.90;;;;;;5112885;28;20389;-62
2022/03/31 08:50:26;;;;;;;56.10;24.92;;;6.70;99.90;;;;;;5111946;28;20027;-62
2022/03/31 08:52:53;;;;;;;60.55;26.38;;;6.90;99.90;;;;;;5112956;28;20047;-62
2022/03/31 08:55:21;;;;;;;60.13;28.38;;;6.90;99.90;;;;;;5112618;28;20016;-62
2022/03/31 08:57:49;;;;;;;55.88;24.42;;;6.90;99.90;;;;;;5112014;28;20024;-61
2022/03/31 09:00:16;;;;;;;52.28;25.38;;;7.00;99.90;;;;;;5112543;28;20023;-62
2022/03/31 09:03:01;;;;;;;63.50;26.13;;;6.90;99.90;;;;;;5110705;28;20474;-62
2022/03/31 09:05:38;;;;;;;59.65;25.77;;;7.00;99.90;;;;;;5112520;28;20023;-63
2022/03/31 09:08:05;;;;;;;57.03;26.08;;;7.10;99.90;;;;;;5112527;28;20019;-63
2022/03/31 09:10:35;;;;;;;51.00;24.52;;;7.20;99.90;;;;;;5106051;28;20091;-63
2022/03/31 09:13:04;;;;;;;50.38;23.15;;;7.20;99.90;;;;;;5112564;28;20058;-62
2022/03/31 09:15:30;;;;;;;43.95;22.58;;;7.30;99.90;;;;;;5106170;28;20015;-62
2022/03/31 09:17:57;;;;;;;46.85;23.15;;;7.40;99.90;;;;;;5110317;28;20055;-61
2022/03/31 09:20:23;;;;;;;55.00;25.75;;;7.50;99.90;;;;;;5112208;28;20023;-62
2022/03/31 09:22:50;;;;;;;48.20;21.75;;;7.40;99.90;;;;;;5112181;28;20024;-63
2022/03/31 09:25:28;;;;;;;48.05;21.88;;;7.40;99.90;;;;;;5108023;28;20446;-63
2022/03/31 09:27:55;;;;;;;50.55;24.45;;;7.40;99.90;;;;;;5112375;28;20031;-62
2022/03/31 09:30:22;;;;;;;49.63;22.83;;;7.40;99.90;;;;;;5112314;28;20106;-63
2022/03/31 09:32:49;;;;;;;50.22;23.08;;;7.30;99.90;;;;;;5104770;28;20019;-63
2022/03/31 09:35:20;;;;;;;50.58;24.42;;;7.30;99.90;;;;;;5111628;28;20058;-64
2022/03/31 09:37:49;;;;;;;49.55;24.52;;;7.40;99.90;;;;;;5105507;28;20517;-62
2022/03/31 09:40:15;;;;;;;50.35;23.02;;;7.40;99.90;;;;;;5112053;28;20034;-63
2022/03/31 09:42:41;;;;;;;50.72;23.05;;;7.40;99.90;;;;;;5111991;28;20024;-63
2022/03/31 09:45:08;;;;;;;54.97;25.08;;;7.50;99.90;;;;;;5111699;28;20395;-63
2022/03/31 09:47:43;;;;;;;45.75;22.23;;;7.50;99.90;;;;;;5110620;28;20418;-63
2022/03/31 09:50:09;;;;;;;54.58;26.60;;;7.40;99.90;;;;;;5104952;28;20027;-63
2022/03/31 09:52:37;;;;;;;52.53;23.75;;;7.30;99.90;;;;;;5111457;28;20028;-63
2022/03/31 09:55:03;;;;;;;54.55;24.55;;;7.40;99.90;;;;;;5111336;28;20036;-63
2022/03/31 09:57:30;;;;;;;54.53;23.55;;;7.40;99.90;;;;;;5111801;28;20039;-63
2022/03/31 09:59:56;;;;;;;51.80;23.17;;;7.40;99.90;;;;;;5111913;28;20572;-63
2022/03/31 10:02:22;;;;;;;58.28;25.25;;;7.50;99.90;;;;;;5087117;28;20150;-60
2022/03/31 10:04:48;;;;;;;56.10;24.77;;;7.50;99.90;;;;;;5111767;28;20103;-62
2022/03/31 10:07:15;;;;;;;49.53;24.70;;;7.50;99.90;;;;;;5112190;28;20498;-63
2022/03/31 10:09:44;;;;;;;54.97;27.40;;;7.50;99.90;;;;;;5110541;28;20404;-61
2022/03/31 10:12:24;;;;;;;63.35;26.25;;;7.60;99.90;;;;;;5111633;28;20050;-62
2022/03/31 10:15:05;;;;;;;55.88;25.05;;;7.80;99.90;;;;;;5110728;28;20106;-62
2022/03/31 10:17:31;;;;;;;48.13;24.75;;;7.90;99.90;;;;;;5105165;28;20019;-63
2022/03/31 10:20:11;;;;;;;54.25;24.17;;;7.80;99.90;;;;;;5111311;28;20024;-62
2022/03/31 10:25:22;;;;;;;54.45;24.77;;;8.00;99.90;;;;;;5109057;28;20034;-62
2022/03/31 10:27:50;;;;;;;51.38;25.52;;;7.90;99.90;;;;;;5108629;28;20023;-63
2022/03/31 10:30:19;;;;;;;58.95;25.50;;;7.90;99.90;;;;;;5110851;28;20106;-62
2022/03/31 10:32:58;;;;;;;47.88;24.23;;;7.90;99.90;;;;;;5105319;28;20038;-63
2022/03/31 10:35:32;;;;;;;49.60;24.52;;;7.90;99.90;;;;;;5110496;28;20086;-63
2022/03/31 10:38:09;;;;;;;43.75;22.88;;;8.00;99.90;;;;;;5111409;28;20037;-62
2022/03/31 10:40:38;;;;;;;55.42;25.58;;;8.00;99.90;;;;;;5109817;28;20107;-62
2022/03/31 10:43:11;;;;;;;49.08;23.88;;;7.80;99.90;;;;;;5105356;28;20030;-61
2022/03/31 10:45:42;;;;;;;55.80;23.58;;;7.70;99.90;;;;;;5110921;28;20107;-64
2022/03/31 10:48:14;;;;;;;57.90;25.63;;;7.50;99.90;;;;;;5110206;28;20076;-62
2022/03/31 10:50:40;;;;;;;57.90;24.52;;;7.40;99.90;;;;;;5105059;28;20023;-64
2022/03/31 10:53:05;;;;;;;56.03;25.33;;;7.40;99.90;;;;;;5110741;28;20099;-63
2022/03/31 10:55:49;;;;;;;52.83;24.77;;;7.30;99.90;;;;;;5110562;28;20076;-63
2022/03/31 10:58:28;;;;;;;54.13;24.67;;;7.30;99.90;;;;;;5110715;28;20023;-62
2022/03/31 11:01:01;;;;;;;59.58;26.15;;;7.30;99.90;;;;;;5127007;22;20126;-59
2022/03/31 11:03:27;;;;;;;60.88;27.05;;;7.30;99.90;;;;;;5108461;28;20036;-60
2022/03/31 11:05:56;;;;;;;61.30;26.00;;;7.30;99.90;;;;;;5110112;28;20035;-59
2022/03/31 11:08:21;;;;;;;59.45;26.83;;;7.30;99.90;;;;;;5110270;28;20027;-59
2022/03/31 11:10:52;;;;;;;54.42;26.73;;;7.20;99.90;;;;;;5109741;28;20039;-59
2022/03/31 11:13:20;;;;;;;59.35;26.30;;;7.20;99.90;;;;;;5110202;28;20588;-58
2022/03/31 11:15:54;;;;;;;59.50;26.05;;;7.20;99.90;;;;;;5110025;28;20447;-60
2022/03/31 11:18:21;;;;;;;65.50;26.35;;;7.20;99.90;;;;;;5109573;28;20016;-59
2022/03/31 11:20:50;;;;;;;63.97;26.40;;;7.10;99.90;;;;;;5106255;28;20027;-60
2022/03/31 11:23:16;;;;;;;55.92;25.63;;;7.10;99.90;;;;;;5091839;28;20024;-59
2022/03/31 11:25:44;;;;;;;64.72;26.40;;;7.10;99.90;;;;;;5111330;28;20024;-60
2022/03/31 11:28:12;;;;;;;59.55;26.83;;;7.10;99.90;;;;;;5111780;28;20067;-60
2022/03/31 11:30:39;;;;;;;58.78;26.88;;;7.10;99.90;;;;;;5111051;28;20028;-61
2022/03/31 11:33:05;;;;;;;64.95;26.95;;;7.00;99.90;;;;;;5110472;28;20039;-59
2022/03/31 11:35:31;;;;;;;57.20;26.38;;;7.00;99.90;;;;;;5111061;28;20035;-59
2022/03/31 11:38:00;;;;;;;59.10;25.98;;;7.00;99.90;;;;;;5111341;28;20023;-61
2022/03/31 11:40:29;;;;;;;68.03;30.45;;;7.00;99.90;;;;;;5111265;28;20019;-61
2022/03/31 11:42:58;;;;;;;67.05;28.08;;;7.20;99.90;;;;;;5115352;28;20022;-60
2022/03/31 11:45:27;;;;;;;65.47;27.52;;;7.20;99.90;;;;;;5114920;28;20039;-60
2022/03/31 11:48:14;;;;;;;60.55;27.48;;;7.30;99.90;;;;;;5113511;28;20032;-60
2022/03/31 11:50:57;;;;;;;59.80;27.67;;;7.30;99.90;;;;;;5115242;28;20027;-59
2022/03/31 11:53:34;;;;;;;55.50;26.05;;;7.30;99.90;;;;;;5108696;28;20024;-58
2022/03/31 11:56:04;;;;;;;57.72;26.45;;;7.30;99.90;;;;;;5109979;28;20043;-58
2022/03/31 11:58:33;;;;;;;63.47;28.60;;;7.40;99.90;;;;;;5110163;28;20034;-60
2022/03/31 12:00:59;;;;;;;60.67;27.05;;;7.40;99.90;;;;;;5111740;28;20541;-59
2022/03/31 12:03:35;;;;;;;57.90;26.50;;;7.40;99.90;;;;;;5106888;28;20142;-58
2022/03/31 12:06:01;;;;;;;58.08;27.38;;;7.30;99.90;;;;;;5104871;28;20110;-60
2022/03/31 12:08:28;;;;;;;58.75;26.95;;;7.20;99.90;;;;;;5106779;28;20019;-59
2022/03/31 12:10:55;;;;;;;54.50;26.25;;;7.10;99.90;;;;;;5111211;28;20118;-61
2022/03/31 12:13:22;;;;;;;63.25;26.70;;;7.30;99.90;;;;;;5106605;28;20020;-59
2022/03/31 12:15:48;;;;;;;60.58;28.30;;;7.20;99.90;;;;;;5102878;28;20027;-59
2022/03/31 12:18:17;;;;;;;56.67;25.90;;;7.30;99.90;;;;;;5110727;28;20015;-58
2022/03/31 12:20:43;;;;;;;68.93;28.45;;;7.20;99.90;;;;;;5111370;28;20024;-61
2022/03/31 12:23:21;;;;;;;60.28;27.25;;;7.10;99.90;;;;;;5103786;28;20484;-61
2022/03/31 12:25:47;;;;;;;57.97;26.63;;;7.10;99.90;;;;;;5108126;28;20124;-59
2022/03/31 12:28:13;;;;;;;59.25;26.63;;;7.10;99.90;;;;;;5106459;28;20023;-60
2022/03/31 12:30:44;;;;;;;55.55;26.90;;;7.10;99.90;;;;;;5106219;28;20022;-59
2022/03/31 12:33:25;;;;;;;58.53;27.17;;;7.20;99.90;;;;;;5105484;28;20020;-55
2022/03/31 12:36:00;;;;;;;50.55;24.48;;;7.10;99.90;;;;;;5105535;28;20039;-59
2022/03/31 12:38:35;;;;;;;55.13;24.40;;;7.10;99.90;;;;;;5110451;28;20042;-60
2022/03/31 12:41:01;;;;;;;50.15;25.10;;;7.00;99.90;;;;;;5109715;28;20115;-59